ADDS METAR Data INFO
IDs: Format: Raw Decoded Include TAF

Data at: 2052 UTC 19 Jul 2018

KFYJ 192035Z AUTO 12009KT 10SM BKN060 OVC070 29/18 A3008 RMK AO1 T02900183
KFYJ 192010Z AUTO 09007KT 10SM SCT060 BKN070 30/17 A3008 RMK AO1 T02980166
KFYJ 191955Z AUTO 09008KT 10SM BKN070 BKN080 31/16 A3007 RMK AO1
KFYJ 191930Z AUTO 09009KT 10SM BKN070 BKN085 31/15 A3008 RMK AO1 T03090152
KFYJ 191915Z AUTO 09004KT 10SM BKN070 BKN085 30/15 A3008 RMK AO1 T03010149
KFYJ 191855Z AUTO 05006KT 10SM BKN070 31/15 A3008 RMK AO1 T03070145
KFYJ 191835Z AUTO 09005KT 10SM CLR 32/15 A3008 RMK AO1 T03160145
KFYJ 191815Z AUTO 13007KT 10SM CLR 31/15 A3008 RMK AO1 T03130146
KFYJ 191755Z AUTO 13003KT 10SM CLR 31/14 A3009 RMK AO1 T03110138 10314 20219
KFYJ 191735Z AUTO 10008KT 10SM CLR 30/14 A3009 RMK AO1 T02950136
KFYJ 191715Z AUTO 03006KT 10SM CLR 29/12 A3009 RMK AO1 T02930120
KFYJ 191655Z AUTO 07005KT 10SM CLR 30/14 A3010 RMK AO1 T02990138
KFYJ 191635Z AUTO 07008KT 10SM CLR 31/13 A3010 RMK AO1 T03060134
KFYJ 191615Z AUTO 04008KT 360V070 10SM CLR 30/15 A3010 RMK AO1 T02990148
KFYJ 191555Z AUTO 05007KT 020V080 10SM CLR 30/16 A3010 RMK AO1 T03010159
KFYJ 191535Z AUTO 06007KT 10SM SCT075 30/16 A3010 RMK AO1 T02970163
KFYJ 191515Z AUTO 07007KT 10SM SCT044 SCT050 SCT075 29/17 A3010 RMK AO1 T02940174
KFYJ 191455Z AUTO 07008KT 10SM SCT044 SCT075 29/18 A3009 RMK AO1 T02870181
KFYJ 191435Z AUTO 05007KT 020V090 10SM CLR 29/18 A3010 RMK AO1 T02940178
KFYJ 191410Z AUTO 07008KT 10SM CLR 29/18 A3010 RMK AO1 T02910177
KFYJ 191355Z AUTO 06006KT 10SM CLR 28/19 A3009 RMK AO1 T02780190
KFYJ 191335Z AUTO 07007KT 10SM CLR 27/20 A3008 RMK AO1 T02730198
KFYJ 191315Z AUTO 04005KT 10SM CLR 26/20 A3008 RMK AO1 T02630200
KFYJ 191255Z AUTO 03003KT 10SM CLR 25/20 A3008 RMK AO1 T02540201
KFYJ 191235Z AUTO 01004KT 10SM CLR 25/20 A3007 RMK AO1 T02450200
KFYJ 191215Z AUTO 01003KT 10SM CLR 23/20 A3007 RMK AO1 T02310195
KFYJ 191155Z AUTO 00000KT 10SM CLR 22/19 A3007 RMK AO1 7//// T02180189 10218 20145
KFYJ 191135Z AUTO 00000KT 10SM CLR 21/19 A3006 RMK AO1 T02070189
KFYJ 191115Z AUTO 00000KT 10SM CLR 19/18 A3006 RMK AO1 T01920183
KFYJ 191055Z AUTO 00000KT 10SM CLR 17/16 A3005 RMK AO1 T01680164
KFYJ 191035Z AUTO 00000KT 10SM CLR 16/15 A3004 RMK AO1 T01590153
KFYJ 191015Z AUTO 00000KT 10SM CLR 16/16 A3004 RMK AO1 T01550155
KFYJ 190955Z AUTO 00000KT 10SM SCT080 15/15 A3004 RMK AO1 T01480148
KFYJ 190935Z AUTO 00000KT 10SM CLR 16/15 A3003 RMK AO1 T01560154
KFYJ 190915Z AUTO 00000KT 10SM CLR 16/15 A3003 RMK AO1 T01550152
KFYJ 190855Z AUTO 35003KT 10SM CLR 18/17 A3003 RMK AO1 T01830173
KFYJ 190835Z AUTO 00000KT 10SM CLR 19/17 A3002 RMK AO1 T01850172
KFYJ 190815Z AUTO 00000KT 10SM CLR 18/17 A3002 RMK AO1 T01820171
KFYJ 190755Z AUTO 00000KT 10SM CLR 19/17 A3002 RMK AO1 T01850170
KFYJ 190735Z AUTO 34003KT 10SM CLR 18/17 A3002 RMK AO1 T01790173
KFYJ 190715Z AUTO 00000KT 10SM CLR 17/17 A3002 RMK AO1 T01660165
KFYJ 190655Z AUTO 00000KT 10SM SCT080 17/16 A3003 RMK AO1 T01690163
KFYJ 190635Z AUTO 00000KT 10SM SCT080 17/17 A3003 RMK AO1 T01690165
KFYJ 190615Z AUTO 00000KT 10SM SCT080 17/16 A3002 RMK AO1 T01650160
KFYJ 190555Z AUTO 00000KT 10SM CLR 16/16 A3002 RMK AO1 T01620158 10265 20162
KFYJ 190535Z AUTO 00000KT 10SM CLR 17/16 A3002 RMK AO1 T01700164
KFYJ 190515Z AUTO 00000KT 10SM SCT075 17/17 A3002 RMK AO1 T01690166
KFYJ 190455Z AUTO 00000KT 10SM CLR 17/17 A3001 RMK AO1 T01700165
KFYJ 190435Z AUTO 00000KT 10SM CLR 16/15 A3001 RMK AO1 T01630154
KFYJ 190415Z AUTO 00000KT 10SM CLR 17/16 A3000 RMK AO1 T01720163
KFYJ 190400Z AUTO 00000KT 10SM CLR 18/17 A3000 RMK AO1 T01780165
KFYJ 190330Z AUTO 00000KT 10SM CLR 19/17 A3000 RMK AO1 T01850171
KFYJ 190315Z AUTO 00000KT 10SM CLR 18/17 A2999 RMK AO1 T01770167
KFYJ 190255Z AUTO 00000KT 10SM CLR 20/18 A2999 RMK AO1 T01950175
KFYJ 190235Z AUTO 00000KT 10SM CLR 19/17 A2999 RMK AO1 T01890170
KFYJ 190215Z AUTO 00000KT 10SM CLR 19/17 A2999 RMK AO1 T01890168
KFYJ 190155Z AUTO 00000KT 10SM CLR 20/17 A2998 RMK AO1 T01970167
KFYJ 190135Z AUTO 00000KT 10SM CLR 20/17 A2998 RMK AO1 T01970166
KFYJ 190115Z AUTO 00000KT 10SM CLR 21/17 A2997 RMK AO1 T02070165
KFYJ 190055Z AUTO 00000KT 10SM CLR 21/17 A2997 RMK AO1 T02130166
KFYJ 190035Z AUTO 00000KT 10SM CLR 22/17 A2996 RMK AO1 T02230165
KFYJ 190015Z AUTO 00000KT 10SM CLR 25/16 A2996 RMK AO1 T02470161
KFYJ 182355Z AUTO 32003KT 10SM CLR 27/15 A2996 RMK AO1 6//// T02660152
KFYJ 182335Z AUTO 31003KT 10SM CLR 28/15 A2996 RMK AO1 T02750145
KFYJ 182315Z AUTO 31005KT 10SM CLR 28/15 A2995 RMK AO1 T02830145
KFYJ 182255Z AUTO 36004KT 10SM CLR 29/15 A2995 RMK AO1 T02890152
KFYJ 182235Z AUTO 32003KT 10SM SCT065 28/15 A2995 RMK AO1 T02810147
KFYJ 182215Z AUTO 31004KT 10SM OVC065 28/15 A2994 RMK AO1 T02830149
KFYJ 182135Z AUTO 32004KT 10SM SCT065 30/15 A2994 RMK AO1 T03000153
KFYJ 182115Z AUTO 31006KT 10SM BKN065 BKN075 30/15 A2994 RMK AO1 T02970147
KFYJ 182055Z AUTO 32006KT 10SM CLR 30/15 A2994 RMK AO1 T02970146
KFYJ 182035Z AUTO 36005KT 10SM SCT070 30/13 A2994 RMK AO1 T03020132
KFYJ 182015Z AUTO 34007KT 320V020 10SM SCT070 31/14 A2994 RMK AO1 T03050144
KFYJ 181955Z AUTO 33003KT 10SM SCT060 30/15 A2994 RMK AO1 T03020145
KFYJ 181935Z AUTO 34005KT 10SM SCT060 31/16 A2995 RMK AO1 T03060155
KFYJ 181915Z AUTO 31006KT 10SM SCT060 30/15 A2995 RMK AO1 T03000154
KFYJ 181855Z AUTO 31008KT 10SM CLR 30/16 A2995 RMK AO1 T03040161
KFYJ 181835Z AUTO 29008KT 10SM SCT055 30/16 A2995 RMK AO1 T03010160
KFYJ 181815Z AUTO 30007KT 10SM CLR 30/17 A2995 RMK AO1 T03000166
KFYJ 181755Z AUTO 32007KT 10SM SCT060 30/17 A2995 RMK AO1 T03000172 10301 20223
KFYJ 181735Z AUTO 32006KT 10SM SCT060 29/18 A2995 RMK AO1 T02940177
KFYJ 181715Z AUTO 33004KT 10SM SCT049 SCT060 29/18 A2996 RMK AO1 T02940179
KFYJ 181655Z AUTO 30007KT 10SM SCT049 SCT055 29/18 A2996 RMK AO1 T02910183
KFYJ 181635Z AUTO 36006KT 10SM SCT044 BKN049 BKN060 28/17 A2996 RMK AO1 T02810172
KFYJ 181615Z AUTO 29005KT 10SM SCT043 SCT049 SCT060 27/18 A2996 RMK AO1 T02740182
KFYJ 181555Z AUTO 03006KT 10SM CLR 28/18 A2996 RMK AO1 T02780181
KFYJ 181535Z AUTO 36007KT 10SM CLR 27/19 A2997 RMK AO1 T02740188
KFYJ 181515Z AUTO 33005KT 10SM CLR 27/19 A2997 RMK AO1 T02700187
KFYJ 181455Z AUTO 05007KT 360V060 10SM CLR 27/19 A2997 RMK AO1 T02670190
KFYJ 181435Z AUTO 33003KT 10SM CLR 27/20 A2997 RMK AO1 T02650195
KFYJ 181415Z AUTO 36005KT 10SM CLR 26/20 A2997 RMK AO1 T02580197
KFYJ 181355Z AUTO 36004KT 10SM CLR 25/19 A2997 RMK AO1 T02490194
KFYJ 181335Z AUTO 33007KT 290V030 10SM SCT070 25/19 A2997 RMK AO1 T02450193
KFYJ 181315Z AUTO 32006KT 10SM BKN070 24/20 A2997 RMK AO1 T02370197
KFYJ 181255Z AUTO 34005KT 10SM BKN070 23/19 A2997 RMK AO1 T02320194
KFYJ 181235Z AUTO 33006KT 10SM BKN070 23/20 A2996 RMK AO1 T02270195
KFYJ 181215Z AUTO 33006KT 10SM SCT070 23/20 A2996 RMK AO1 T02290196
KFYJ 181155Z AUTO 33003KT 5SM CLR 22/20 A2995 RMK AO1 70006 T02210200 10230 20211
KFYJ 181135Z AUTO 31003KT 10SM CLR 22/20 A2994 RMK AO1 T02170198
KFYJ 181115Z AUTO 00000KT 10SM CLR 22/20 A2993 RMK AO1 T02150197
KFYJ 181055Z AUTO 00000KT 10SM CLR 22/20 A2993 RMK AO1 T02150196
KFYJ 181035Z AUTO 33003KT 10SM CLR 21/20 A2992 RMK AO1 T02110195
KFYJ 181015Z AUTO 33003KT 10SM CLR 21/20 A2991 RMK AO1 T02130196
KFYJ 180955Z AUTO 00000KT 10SM CLR 22/20 A2990 RMK AO1 T02150202
KFYJ 180935Z AUTO 00000KT 10SM CLR 22/21 A2989 RMK AO1 T02180206
KFYJ 180915Z AUTO 00000KT 10SM CLR 22/21 A2988 RMK AO1 T02210211
KFYJ 180855Z AUTO 00000KT 10SM CLR 22/22 A2988 RMK AO1 T02220215